createdAt,value
2022-10-11T00:00:58.247Z,13.70
2022-10-11T00:04:01.447Z,13.70
2022-10-11T00:07:04.674Z,13.70
2022-10-11T00:10:09.382Z,13.70
2022-10-11T00:13:12.516Z,13.70
2022-10-11T00:16:16.976Z,13.70
2022-10-11T00:19:20.292Z,13.70
2022-10-11T00:22:23.405Z,13.70
2022-10-11T00:25:26.606Z,13.70
2022-10-11T00:28:29.988Z,13.70
2022-10-11T00:31:35.841Z,13.60
2022-10-11T00:34:39.127Z,13.60
2022-10-11T00:37:42.198Z,13.60
2022-10-11T00:40:45.776Z,13.70
2022-10-11T00:43:48.997Z,13.60
2022-10-11T00:46:56.275Z,13.60
2022-10-11T00:50:02.649Z,13.60
2022-10-11T00:53:11.355Z,13.50
2022-10-11T00:56:21.347Z,13.50
2022-10-11T00:59:28.810Z,13.40
2022-10-11T01:02:33.520Z,13.40
2022-10-11T01:05:38.907Z,13.40
2022-10-11T01:08:42.323Z,13.40
2022-10-11T01:11:45.832Z,13.40
2022-10-11T01:15:05.359Z,13.40
2022-10-11T01:18:16.207Z,13.40
2022-10-11T01:21:30.979Z,13.40
2022-10-11T01:25:08.519Z,13.40
2022-10-11T01:28:27.684Z,13.40
2022-10-11T01:31:40.232Z,13.40
2022-10-11T01:34:53.256Z,13.30
2022-10-11T01:38:01.718Z,13.30
2022-10-11T01:41:09.616Z,13.30
2022-10-11T01:44:13.812Z,13.30
2022-10-11T01:47:22.611Z,13.30
2022-10-11T01:50:44.298Z,13.30
2022-10-11T01:54:12.227Z,13.30
2022-10-11T01:57:42.696Z,13.40
2022-10-11T02:00:55.470Z,13.40
2022-10-11T02:04:06.494Z,13.40
2022-10-11T02:07:17.520Z,13.40
2022-10-11T02:10:27.012Z,13.50
2022-10-11T02:13:35.282Z,13.40
2022-10-11T02:16:43.383Z,13.40
2022-10-11T02:19:52.101Z,13.50
2022-10-11T02:22:59.982Z,13.50
2022-10-11T02:26:07.673Z,13.50
2022-10-11T02:29:13.255Z,13.50
2022-10-11T02:32:18.501Z,13.60
2022-10-11T02:35:27.957Z,13.60
2022-10-11T02:38:35.773Z,13.60
2022-10-11T02:41:43.165Z,13.60
2022-10-11T02:44:53.382Z,13.60
2022-10-11T02:47:57.453Z,13.60
2022-10-11T02:51:02.003Z,13.30
2022-10-11T02:54:05.246Z,13.30
2022-10-11T02:57:08.341Z,13.20
2022-10-11T03:00:12.836Z,13.20
2022-10-11T03:03:15.963Z,13.20
2022-10-11T03:06:20.638Z,13.20
2022-10-11T03:09:23.729Z,13.30
2022-10-11T03:12:26.996Z,13.30
2022-10-11T03:15:30.524Z,13.30
2022-10-11T03:18:33.637Z,13.30
2022-10-11T03:21:38.168Z,13.20
2022-10-11T03:24:41.323Z,13.20
2022-10-11T03:27:44.523Z,13.20
2022-10-11T03:30:49.259Z,13.20
2022-10-11T03:33:52.393Z,13.20
2022-10-11T03:36:56.909Z,13.30
2022-10-11T03:40:00.082Z,13.30
2022-10-11T03:43:03.342Z,13.30
2022-10-11T03:46:07.062Z,13.30
2022-10-11T03:49:10.479Z,13.30
2022-10-11T03:52:14.982Z,13.30
2022-10-11T03:55:18.261Z,13.20
2022-10-11T03:58:22.061Z,13.20
2022-10-11T04:01:25.236Z,13.30
2022-10-11T04:04:28.415Z,13.30
2022-10-11T04:07:33.227Z,13.30
2022-10-11T04:10:36.373Z,13.40
2022-10-11T04:13:39.451Z,13.30
2022-10-11T04:16:42.596Z,13.30
2022-10-11T04:19:45.703Z,13.40
2022-10-11T04:22:50.484Z,13.40
2022-10-11T04:25:53.597Z,13.30
2022-10-11T04:28:56.783Z,13.30
2022-10-11T04:32:00.013Z,13.30
2022-10-11T04:35:04.739Z,13.30
2022-10-11T04:38:09.948Z,13.40
2022-10-11T04:41:14.891Z,13.40
2022-10-11T04:44:17.988Z,13.40
2022-10-11T04:47:21.119Z,13.40
2022-10-11T04:50:24.241Z,13.40
2022-10-11T04:53:28.916Z,13.40
2022-10-11T04:56:32.516Z,13.40
2022-10-11T04:59:35.645Z,13.40
2022-10-11T05:02:38.715Z,13.30
2022-10-11T05:05:41.842Z,13.30
2022-10-11T05:08:46.373Z,13.40
2022-10-11T05:11:49.518Z,13.40
2022-10-11T05:14:53.003Z,13.40
2022-10-11T05:32:18.424Z,13.40
2022-10-11T05:35:22.915Z,13.40
2022-10-11T05:38:26.021Z,13.40
2022-10-11T05:41:30.087Z,13.50
2022-10-11T05:44:33.198Z,13.50
2022-10-11T05:47:36.290Z,13.60
2022-10-11T05:50:40.826Z,13.70
2022-10-11T05:53:43.920Z,13.80
2022-10-11T05:56:47.081Z,13.90
2022-10-11T05:59:50.182Z,13.90
2022-10-11T06:02:53.276Z,14.00
2022-10-11T06:05:57.787Z,14.00
2022-10-11T06:09:00.973Z,14.10
2022-10-11T06:12:04.183Z,14.10
2022-10-11T06:15:08.865Z,14.20
2022-10-11T06:18:11.971Z,14.30
2022-10-11T06:21:16.670Z,14.30
2022-10-11T06:24:20.501Z,14.40
2022-10-11T06:27:23.632Z,14.40
2022-10-11T06:30:26.809Z,14.60
2022-10-11T06:33:29.931Z,14.70
2022-10-11T06:36:34.394Z,14.90
2022-10-11T06:39:37.498Z,14.90
2022-10-11T06:42:40.623Z,15.00
2022-10-11T06:45:43.776Z,15.20
2022-10-11T06:48:48.460Z,15.40
2022-10-11T06:51:53.000Z,15.60
2022-10-11T06:54:56.076Z,15.80
2022-10-11T06:57:59.182Z,16.00
2022-10-11T07:01:02.968Z,16.10
2022-10-11T07:04:06.440Z,16.30
2022-10-11T07:07:13.734Z,16.30
2022-10-11T07:10:17.182Z,16.30
2022-10-11T07:13:20.264Z,16.40
2022-10-11T07:16:24.264Z,16.40
2022-10-11T07:19:27.408Z,16.50
2022-10-11T07:22:31.906Z,16.60
2022-10-11T07:25:35.043Z,16.70
2022-10-11T07:28:39.355Z,16.80
2022-10-11T07:31:43.919Z,17.00
2022-10-11T07:34:47.017Z,17.20
2022-10-11T07:37:51.505Z,17.40
2022-10-11T07:40:55.078Z,17.70
2022-10-11T07:43:58.221Z,17.90
2022-10-11T07:47:01.361Z,18.10
2022-10-11T07:50:04.826Z,18.20
2022-10-11T07:53:10.042Z,18.60
2022-10-11T07:56:15.167Z,19.20
2022-10-11T07:59:18.274Z,19.60
2022-10-11T08:02:21.419Z,20.20
2022-10-11T08:05:24.945Z,20.80
2022-10-11T08:08:29.622Z,21.00
2022-10-11T08:11:35.104Z,21.20
2022-10-11T08:14:38.200Z,21.20
2022-10-11T08:17:41.285Z,21.20
2022-10-11T08:20:44.659Z,21.20
2022-10-11T08:23:49.150Z,21.50
2022-10-11T08:26:53.158Z,21.60
2022-10-11T08:29:56.237Z,21.70
2022-10-11T08:32:59.372Z,21.50
2022-10-11T08:36:05.977Z,21.20
2022-10-11T08:39:10.894Z,20.90
2022-10-11T08:42:21.656Z,20.60
2022-10-11T08:45:33.453Z,20.10
2022-10-11T08:48:39.407Z,19.90
2022-10-11T08:51:46.739Z,19.90
2022-10-11T08:54:56.334Z,19.90
2022-10-11T08:58:00.425Z,20.00
2022-10-11T09:01:05.078Z,20.10
2022-10-11T09:04:13.996Z,20.40
2022-10-11T09:07:28.250Z,20.70
2022-10-11T09:10:53.900Z,21.00
2022-10-11T09:14:08.676Z,21.00
2022-10-11T09:17:21.667Z,21.10
2022-10-11T09:20:53.419Z,21.00
2022-10-11T09:24:26.124Z,21.00
2022-10-11T09:27:57.828Z,21.70
2022-10-11T09:31:00.381Z,22.90
2022-10-11T09:34:12.165Z,25.70
2022-10-11T09:37:22.040Z,29.50
2022-10-11T09:40:37.160Z,30.60
2022-10-11T09:43:41.822Z,31.20
2022-10-11T09:46:45.920Z,34.40
2022-10-11T09:49:52.271Z,37.70
2022-10-11T09:52:56.756Z,40.40
2022-10-11T09:56:05.552Z,42.40
2022-10-11T09:59:29.028Z,43.70
2022-10-11T10:02:39.994Z,45.60
2022-10-11T10:05:43.220Z,46.70
2022-10-11T10:08:47.653Z,48.00
2022-10-11T10:11:50.817Z,47.40
2022-10-11T10:15:06.073Z,47.60
2022-10-11T10:18:18.407Z,47.90
2022-10-11T10:21:30.942Z,47.80
2022-10-11T10:24:40.697Z,47.70
2022-10-11T10:27:58.497Z,46.80
2022-10-11T10:31:03.099Z,46.50
2022-10-11T10:34:13.650Z,45.00
2022-10-11T10:37:22.638Z,45.10
2022-10-11T10:40:30.139Z,45.20
2022-10-11T10:43:36.158Z,46.50
2022-10-11T10:46:55.776Z,47.50
2022-10-11T10:50:07.970Z,46.40
2022-10-11T10:53:24.439Z,44.90
2022-10-11T10:56:33.818Z,45.10
2022-10-11T10:59:59.730Z,45.20
2022-10-11T11:03:07.018Z,44.50
2022-10-11T11:06:17.084Z,44.90
2022-10-11T11:09:34.580Z,44.70
2022-10-11T11:12:47.437Z,46.50
2022-10-11T11:15:56.917Z,45.80
2022-10-11T11:19:08.408Z,46.70
2022-10-11T11:22:22.285Z,47.80
2022-10-11T11:25:31.488Z,45.70
2022-10-11T11:28:53.421Z,44.60
2022-10-11T11:32:11.938Z,42.80
2022-10-11T11:35:25.585Z,43.00
2022-10-11T11:38:38.285Z,44.00
2022-10-11T11:41:45.422Z,45.00
2022-10-11T11:44:50.369Z,46.70
2022-10-11T11:47:57.653Z,47.00
2022-10-11T11:51:06.214Z,47.80
2022-10-11T11:54:22.335Z,48.20
2022-10-11T11:57:32.716Z,47.70
2022-10-11T12:00:47.686Z,47.50
2022-10-11T12:03:54.854Z,48.30
2022-10-11T12:07:21.884Z,49.00
2022-10-11T12:10:35.866Z,49.40
2022-10-11T12:13:40.813Z,49.70
2022-10-11T12:17:18.609Z,49.10
2022-10-11T12:20:25.205Z,48.30
2022-10-11T12:23:48.288Z,48.70
2022-10-11T12:26:56.342Z,47.80
2022-10-11T12:29:59.488Z,47.80
2022-10-11T12:33:14.052Z,48.10
2022-10-11T12:36:39.277Z,48.30
2022-10-11T12:39:52.303Z,49.50
2022-10-11T12:43:12.187Z,49.90
2022-10-11T12:46:34.839Z,50.10
2022-10-11T12:50:03.033Z,49.40
2022-10-11T12:53:13.359Z,49.40
2022-10-11T12:56:27.251Z,46.70
2022-10-11T12:59:32.967Z,45.20
2022-10-11T13:02:42.611Z,45.80
2022-10-11T13:05:52.347Z,45.30
2022-10-11T13:09:01.095Z,45.60
2022-10-11T13:12:08.184Z,45.30
2022-10-11T13:15:16.655Z,43.90
2022-10-11T13:18:22.849Z,44.50
2022-10-11T13:21:31.167Z,45.00
2022-10-11T13:24:38.235Z,44.40
2022-10-11T13:27:42.919Z,44.30
2022-10-11T13:30:49.373Z,43.10
2022-10-11T13:33:55.149Z,40.00
2022-10-11T13:36:59.696Z,37.10
2022-10-11T13:40:03.077Z,35.10
2022-10-11T13:43:08.905Z,33.70
2022-10-11T13:46:17.886Z,32.10
2022-10-11T13:49:37.207Z,30.90
2022-10-11T13:52:54.902Z,29.50
2022-10-11T13:55:59.990Z,28.60
2022-10-11T13:59:05.246Z,27.70
2022-10-11T14:02:19.478Z,27.10
2022-10-11T14:05:26.575Z,26.60
2022-10-11T14:08:35.502Z,25.90
2022-10-11T14:11:40.439Z,25.30
2022-10-11T14:14:45.201Z,25.00
2022-10-11T14:17:48.297Z,24.70
2022-10-11T14:20:51.492Z,24.20
2022-10-11T14:23:56.595Z,23.80
2022-10-11T14:27:00.035Z,23.60
2022-10-11T14:30:24.645Z,23.50
2022-10-11T14:33:29.134Z,23.40
2022-10-11T14:36:32.545Z,23.20
2022-10-11T14:39:35.658Z,22.70
2022-10-11T14:42:38.764Z,22.60
2022-10-11T14:45:43.249Z,22.60
2022-10-11T14:49:01.465Z,22.40
2022-10-11T14:52:06.989Z,22.20
2022-10-11T14:55:10.227Z,22.20
2022-10-11T14:58:15.878Z,22.20
2022-10-11T15:01:20.397Z,22.10
2022-10-11T15:04:24.956Z,22.00
2022-10-11T15:07:28.073Z,22.00
2022-10-11T15:10:34.829Z,22.00
2022-10-11T15:13:37.956Z,21.90
2022-10-11T15:16:43.140Z,21.70
2022-10-11T15:19:46.234Z,21.60
2022-10-11T15:22:50.008Z,21.50
2022-10-11T15:25:53.193Z,21.30
2022-10-11T15:28:58.285Z,21.20
2022-10-11T15:32:02.801Z,21.20
2022-10-11T15:35:06.504Z,21.10
2022-10-11T15:38:18.275Z,21.00
2022-10-11T15:41:21.773Z,20.90
2022-10-11T15:44:25.060Z,20.90
2022-10-11T15:47:29.560Z,20.80
2022-10-11T15:50:38.099Z,20.80
2022-10-11T15:53:41.438Z,20.80
2022-10-11T15:56:44.564Z,20.80
2022-10-11T15:59:47.716Z,20.70
2022-10-11T16:02:53.807Z,20.60
2022-10-11T16:06:02.403Z,20.50
2022-10-11T16:09:08.166Z,20.50
2022-10-11T16:12:11.359Z,20.40
2022-10-11T16:15:14.652Z,20.40
2022-10-11T16:18:21.142Z,20.30
2022-10-11T16:21:24.766Z,20.20
2022-10-11T16:24:27.902Z,20.20
2022-10-11T16:27:31.198Z,20.20
2022-10-11T16:30:34.346Z,20.20
2022-10-11T16:33:45.917Z,20.10
2022-10-11T16:36:49.269Z,20.00
2022-10-11T16:39:52.555Z,20.00
2022-10-11T16:42:55.684Z,20.00
2022-10-11T16:45:59.241Z,20.00
2022-10-11T16:49:04.497Z,20.00
2022-10-11T16:52:10.431Z,20.00
2022-10-11T16:55:13.666Z,20.00
2022-10-11T16:58:16.792Z,20.00
2022-10-11T17:01:20.045Z,20.00
2022-10-11T17:04:25.013Z,20.00
2022-10-11T17:07:28.846Z,19.90
2022-10-11T17:10:39.526Z,19.90
2022-10-11T17:13:42.771Z,19.90
2022-10-11T17:16:46.401Z,19.90
2022-10-11T17:19:51.251Z,19.90
2022-10-11T17:22:55.295Z,19.90
2022-10-11T17:25:58.768Z,19.90
2022-10-11T17:29:02.453Z,19.80
2022-10-11T17:32:06.089Z,19.80
2022-10-11T17:35:10.709Z,19.80
2022-10-11T17:38:14.470Z,19.70
2022-10-11T17:41:18.946Z,19.80
2022-10-11T17:44:23.066Z,19.70
2022-10-11T17:47:26.329Z,19.70
2022-10-11T17:50:32.278Z,19.60
2022-10-11T17:53:35.809Z,19.60
2022-10-11T17:56:40.145Z,19.40
2022-10-11T17:59:43.722Z,19.40
2022-10-11T18:02:49.096Z,19.40
2022-10-11T18:05:54.179Z,19.30
2022-10-11T18:08:58.356Z,19.30
2022-10-11T18:12:02.063Z,19.20
2022-10-11T18:15:06.869Z,19.10
2022-10-11T18:18:11.839Z,19.10
2022-10-11T18:21:18.922Z,19.10
2022-10-11T18:24:22.875Z,19.10
2022-10-11T18:27:26.754Z,19.10
2022-10-11T18:30:30.958Z,19.00
2022-10-11T18:33:34.182Z,19.00
2022-10-11T18:36:39.983Z,19.00
2022-10-11T18:39:43.564Z,19.00
2022-10-11T18:42:47.491Z,18.90
2022-10-11T18:45:51.741Z,18.90
2022-10-11T18:48:56.957Z,18.80
2022-10-11T18:52:05.542Z,18.70
2022-10-11T18:55:10.433Z,18.70
2022-10-11T18:58:14.426Z,18.70
2022-10-11T19:01:19.942Z,18.70
2022-10-11T19:04:23.468Z,18.70
2022-10-11T19:07:29.673Z,18.70
2022-10-11T19:10:33.340Z,18.60
2022-10-11T19:13:37.443Z,18.60
2022-10-11T19:16:43.328Z,18.60
2022-10-11T19:19:47.009Z,18.70
2022-10-11T19:22:54.059Z,18.60
2022-10-11T19:25:58.727Z,18.60
2022-10-11T19:29:04.599Z,18.60
2022-10-11T19:32:08.273Z,18.50
2022-10-11T19:35:13.475Z,18.50
2022-10-11T19:41:25.528Z,18.50
2022-10-11T19:44:29.863Z,18.50
2022-10-11T19:47:34.187Z,18.50
2022-10-11T19:50:38.014Z,18.50
2022-10-11T19:53:43.155Z,18.40
2022-10-11T19:56:46.954Z,18.40
2022-10-11T19:59:51.482Z,18.40
2022-10-11T20:03:00.473Z,18.40
2022-10-11T20:06:05.901Z,18.40
2022-10-11T20:09:29.010Z,18.40
2022-10-11T20:12:34.527Z,18.30
2022-10-11T20:15:38.584Z,18.30
2022-10-11T20:18:42.897Z,18.20
2022-10-11T20:21:46.548Z,18.10
2022-10-11T20:24:51.118Z,18.10
2022-10-11T20:27:54.374Z,18.10
2022-10-11T20:30:57.842Z,18.10
2022-10-11T20:34:04.209Z,18.10
2022-10-11T20:37:07.468Z,18.00
2022-10-11T20:40:14.444Z,18.10
2022-10-11T20:43:17.635Z,18.10
2022-10-11T20:46:22.548Z,18.10
2022-10-11T20:49:25.746Z,18.10
2022-10-11T20:52:28.863Z,18.10
2022-10-11T20:55:33.360Z,18.00
2022-10-11T20:58:36.527Z,18.10
2022-10-11T21:01:41.580Z,18.10
2022-10-11T21:04:45.462Z,18.10
2022-10-11T21:07:50.315Z,18.00
2022-10-11T21:10:55.725Z,18.00
2022-10-11T21:13:59.792Z,18.00
2022-10-11T21:17:02.920Z,18.00
2022-10-11T21:20:07.136Z,18.00
2022-10-11T21:23:10.508Z,18.00
2022-10-11T21:26:18.040Z,18.00
2022-10-11T21:29:21.173Z,18.00
2022-10-11T21:32:24.345Z,18.00
2022-10-11T21:35:28.473Z,17.90
2022-10-11T21:38:31.597Z,17.80
2022-10-11T21:41:36.066Z,17.70
2022-10-11T21:44:42.951Z,17.60
2022-10-11T21:47:46.477Z,17.60
2022-10-11T21:50:53.869Z,17.50
2022-10-11T21:53:59.614Z,17.40
2022-10-11T21:57:04.114Z,17.40
2022-10-11T22:00:08.829Z,17.40
2022-10-11T22:03:12.296Z,17.30
2022-10-11T22:06:16.606Z,17.30
2022-10-11T22:09:19.709Z,17.30
2022-10-11T22:12:24.263Z,17.30
2022-10-11T22:15:27.399Z,17.30
2022-10-11T22:18:33.455Z,17.30
2022-10-11T22:21:40.140Z,17.10
2022-10-11T22:24:45.726Z,17.10
2022-10-11T22:27:50.225Z,17.10
2022-10-11T22:30:53.420Z,17.10
2022-10-11T22:33:57.158Z,17.10
2022-10-11T22:37:00.372Z,17.20
2022-10-11T22:40:03.717Z,17.20
2022-10-11T22:43:08.189Z,17.30
2022-10-11T22:46:11.764Z,17.30
2022-10-11T22:49:15.079Z,17.30
2022-10-11T22:52:18.413Z,17.30
2022-10-11T22:55:21.519Z,17.30
2022-10-11T22:58:26.127Z,17.40
2022-10-11T23:01:29.212Z,17.40
2022-10-11T23:04:32.382Z,17.30
2022-10-11T23:07:35.825Z,17.40
2022-10-11T23:10:39.771Z,17.40
2022-10-11T23:13:44.239Z,17.30
2022-10-11T23:16:47.366Z,17.40
2022-10-11T23:19:50.551Z,17.30
2022-10-11T23:22:53.736Z,17.20
2022-10-11T23:26:04.259Z,17.20
2022-10-11T23:29:08.755Z,17.30
2022-10-11T23:32:12.490Z,17.20
2022-10-11T23:35:15.777Z,17.20
2022-10-11T23:38:18.869Z,17.20
2022-10-11T23:41:22.185Z,17.20
2022-10-11T23:44:26.658Z,17.20
2022-10-11T23:47:29.787Z,17.10
2022-10-11T23:50:32.894Z,17.10
2022-10-11T23:53:36.860Z,17.10
2022-10-11T23:56:39.963Z,17.10
2022-10-11T23:59:44.421Z,17.10
